WABB/BIK METAR and TAF weather

Enter ICAO airport designator
Station Type Date Time Source
WABB METAR 2024/06/14 22:00 UTC NOAA

WABB 142200Z 32003KT 140V320 9999 FEW015 27/25 Q1011 NOSIG


Station Type Date Time Source
WABB Decoded METAR 2024/06/14 22:00 UTC NOAA

Biak / Mokmer, Indonesia (WABB) 01-11S 136-07E 11M
Jun 14, 2024 - 06:00 PM EDT / 2024.06.14 2200 UTC
Wind: from the NW (320 degrees) at 3 MPH (3 KT) (direction variable):0
Visibility: greater than 7 mile(s):0
Sky conditions: mostly clear
Temperature: 80 F (27 C)
Dew Point: 77 F (25 C)
Relative Humidity: 88%
Pressure (altimeter): 29.85 in. Hg (1011 hPa)
ob: WABB 142200Z 32003KT 140V320 9999 FEW015 27/25 Q1011 NOSIG
cycle: 22

Station Type Date Time Source
WABB TAF 2024/06/14 18:13 UTC NOAA